Terminal Aerodrome Forecast
Issued by NWS

Home | Current Version | Previous Version | Text Only | Print | Product List | Glossary On
Versions: 1 2 3 4 5 6 7 8 9 10 11 12 13 14 15 16 17
000
FTAK31 PAFA 242323
TAFATA
TAF
PATA 242323Z 2500/2524 26007KT P6SM VCSH FEW010 BKN027 OVC035
     FM250400 22004KT P6SM -SHRA SCT020 SCT027 OVC035
     FM251000 10004KT 5SM -SHRA BR FU BKN020 OVC035
     FM251800 14004KT P6SM -SHRA SCT020 OVC035=

USA.gov is the U.S. government's official web portal to all federal, state and local government web resources and services.